createdAt,value
2022-10-23T00:29:16.724Z,61.17
2022-10-23T00:51:00.049Z,55.92
2022-10-23T01:12:50.423Z,66.70
2022-10-23T01:34:43.639Z,55.96
2022-10-23T01:56:32.688Z,67.96
2022-10-23T02:22:29.417Z,55.46
2022-10-23T02:44:23.003Z,68.13
2022-10-23T03:06:07.803Z,62.20
2022-10-23T03:27:51.356Z,61.19
2022-10-23T03:49:34.727Z,56.79
2022-10-23T04:11:21.313Z,68.22
2022-10-23T04:33:04.674Z,56.05
2022-10-23T04:54:48.134Z,60.64
2022-10-23T05:16:50.214Z,71.33
2022-10-23T05:38:35.432Z,61.02
2022-10-23T06:00:26.312Z,54.25
2022-10-23T06:22:17.734Z,67.85
2022-10-23T06:44:08.543Z,55.05
2022-10-23T07:06:01.720Z,67.74
2022-10-23T07:27:45.690Z,57.93
2022-10-23T07:49:29.423Z,55.44
2022-10-23T08:11:14.500Z,51.98
2022-10-23T08:33:05.063Z,52.43
2022-10-23T08:55:04.756Z,43.49
2022-10-23T09:16:59.396Z,31.09
2022-10-23T09:38:49.475Z,23.14
2022-10-23T10:00:32.516Z,23.08
2022-10-23T10:22:28.564Z,23.77
2022-10-23T10:44:50.923Z,33.75
2022-10-23T11:06:37.645Z,40.92
2022-10-23T11:28:30.941Z,46.18
2022-10-23T11:50:24.651Z,51.03
2022-10-23T12:12:28.034Z,54.47
2022-10-23T12:34:26.087Z,55.24
2022-10-23T12:56:13.832Z,54.75
2022-10-23T13:18:06.436Z,54.82
2022-10-23T13:40:00.913Z,57.14
2022-10-23T14:24:11.455Z,59.95
2022-10-23T14:45:58.074Z,66.15
2022-10-23T15:07:43.823Z,52.90
2022-10-23T15:29:29.502Z,57.56
2022-10-23T15:51:15.222Z,67.84
2022-10-23T16:26:11.984Z,58.22
2022-10-23T16:47:57.699Z,67.81
2022-10-23T17:26:14.010Z,65.86
2022-10-23T17:47:59.733Z,54.09
2022-10-23T18:09:45.686Z,66.06
2022-10-23T18:31:31.803Z,54.84
2022-10-23T18:53:17.606Z,65.68
2022-10-23T19:15:03.340Z,55.82
2022-10-23T19:36:49.742Z,66.26
2022-10-23T19:58:35.833Z,55.86
2022-10-23T20:20:21.549Z,66.68
2022-10-23T20:42:08.515Z,54.37
2022-10-23T21:03:56.318Z,64.90
2022-10-23T21:25:42.971Z,54.30
2022-10-23T21:47:28.933Z,65.54
2022-10-23T22:09:18.964Z,54.96
2022-10-23T22:31:04.950Z,65.92
2022-10-23T22:52:50.748Z,57.16
2022-10-23T23:14:36.691Z,67.83
2022-10-23T23:36:24.998Z,56.27
2022-10-23T23:58:11.064Z,67.10
